• Join FlightAware (Why Join?)
  • Login
  • US Flag 
05:33PM EDT


 

Airport Tracker/Info


-or-


 

Live Flight TrackerFlight Track Log ✈ EMD21 ✈ 15-Jul-2013 ✈ 1F0 - KPWA

Flight Track Log - Related Links

Times and Time Zones

All times are in EDT time to prevent confusion due to time zone crossing. See the EMD21 flight status page for this flight to view local times or setup timezone preferences in your user account.

Time Position Orientation Groundspeed Altitude Reporting Facility
EDT Latitude Longitude Course Direction KTS MPH feet Rate Location/Type
12:57PM 34.2253 -97.1497 344° North 222 255 3,200  Level Fort Worth Center
12:58PM 34.4495 -97.2228 344° North  Level FlightAware Approximate
12:58PM 34.2775 -97.1647 347° North 201 231 4,400  Level Fort Worth Center
12:59PM 34.5021 -97.2410 344° North  Level FlightAware Approximate
12:59PM 34.3297 -97.1744 351° North 191 220 5,100  Level Fort Worth Center
01:00PM 34.3861 -97.1919 346° North 191 220 5,900 360 Climbing Fort Worth Center
01:01PM 34.4425 -97.2222 336° Northwest 207 238 5,900  Level Fort Worth Center
01:02PM 34.5092 -97.2422 346° North 227 261 5,900  Level Fort Worth Center
01:03PM 34.5717 -97.2647 343° North 232 267 5,900  Level Fort Worth Center
01:04PM 34.6344 -97.2925 340° North 238 274 5,900  Level Fort Worth Center
01:05PM 34.6969 -97.3175 342° North 238 274 5,900  Level Fort Worth Center
01:06PM 34.7639 -97.3428 343° North 238 274 5,900 60 Level Fort Worth Center
01:07PM 34.7992 -97.3553 344° North 242 278 6,000 60 Climbing Fort Worth Center
01:08PM 34.8472 -97.3781 339° North 239 275 6,000 -120 Level Fort Worth Center
01:08PM 34.8889 -97.3908 346° North 238 274 5,900 -120 Descending Fort Worth Center
01:09PM 34.9244 -97.4058 341° North 238 274 5,900  Level Fort Worth Center
01:10PM 34.9850 -97.4364 338° Northwest 237 273 5,900  Level Fort Worth Center
01:11PM 35.0369 -97.4744 329° Northwest 232 267 5,900 60 Level Fort Worth Center
01:11PM 35.0683 -97.4897 338° Northwest 233 268 6,000  Climbing Fort Worth Center
01:12PM 35.0997 -97.5125 329° Northwest 235 270 5,900 -360 Descending Fort Worth Center
01:13PM 35.1581 -97.5506 332° Northwest 238 274 5,500 -600 Descending Fort Worth Center
01:14PM 35.2058 -97.5839 330° Northwest 234 269 4,900 -840 Descending Fort Worth Center
01:14PM 35.2392 -97.6017 336° Northwest 233 268 4,400 -720 Descending Fort Worth Center
01:15PM 35.2683 -97.6194 334° Northwest 232 267 4,100 -300 Descending Fort Worth Center
01:16PM 35.3289 -97.6425 343° North 222 255 4,000 -120 Descending Fort Worth Center
01:17PM 35.3914 -97.6503 354° North 227 261 3,900 -600 Descending Fort Worth Center
01:18PM 35.4478 -97.6506 360° North 179 206 2,800 -960 Descending Fort Worth Center
01:19PM 35.4894 -97.6481 North 136 157 2,000 -600 Descending Fort Worth Center
01:20PM 35.5500 -97.6483 360° North 151 174 1,400 1,620 Descending Fort Worth Center
01:21PM 35.5917 -97.6483 360° North 151 174 6,000 4,560 Climbing Fort Worth Center